Time;durP1;ratioP1;P1;durP2;ratioP2;P2;SDS_P1;SDS_P2;PMS_P1;PMS_P2;Temp;Humidity;BMP_temperature;BMP_pressure;BME280_temperature;BME280_humidity;BME280_pressure;Samples;Min_cycle;Max_cycle;Signal;HPM_P1;HPM_P2
2023/03/27 00:00:57;;;;;;;1.05;0.47;;;5.90;69.50;;;;;;5040761;28;20044;-69
2023/03/27 00:03:24;;;;;;;1.55;1.02;;;5.80;69.60;;;;;;5046378;28;20028;-66
2023/03/27 00:06:23;;;;;;;2.65;1.20;;;5.80;69.70;;;;;;5045859;28;20052;-68
2023/03/27 00:08:50;;;;;;;2.80;1.15;;;5.80;69.60;;;;;;5035544;28;20042;-66
2023/03/27 00:11:15;;;;;;;1.95;0.77;;;5.80;69.80;;;;;;5028176;28;20477;-65
2023/03/27 00:13:42;;;;;;;6.10;1.65;;;5.70;70.00;;;;;;5043582;28;20044;-65
2023/03/27 00:16:08;;;;;;;2.88;0.88;;;5.70;70.10;;;;;;5046666;28;20037;-69
2023/03/27 00:18:35;;;;;;;1.08;0.68;;;5.70;70.20;;;;;;5038455;28;20401;-69
2023/03/27 00:21:01;;;;;;;1.58;0.85;;;5.60;70.20;;;;;;5047878;28;20524;-65
2023/03/27 00:23:30;;;;;;;0.70;0.60;;;5.60;70.30;;;;;;5038795;28;20025;-65
2023/03/27 00:25:57;;;;;;;2.70;0.88;;;5.60;70.40;;;;;;5043541;28;20026;-66
2023/03/27 00:28:29;;;;;;;3.10;0.60;;;5.60;70.50;;;;;;5037632;28;20044;-66
2023/03/27 00:30:56;;;;;;;0.93;0.73;;;5.50;70.50;;;;;;5040680;28;20021;-65
2023/03/27 00:33:23;;;;;;;4.85;1.10;;;5.50;70.60;;;;;;5042076;28;20382;-65
2023/03/27 00:35:49;;;;;;;4.22;1.08;;;5.40;70.70;;;;;;5045906;28;20025;-65
2023/03/27 00:38:17;;;;;;;7.05;0.77;;;5.40;70.80;;;;;;5038415;28;20025;-65
2023/03/27 00:40:43;;;;;;;1.10;0.75;;;5.40;70.80;;;;;;5045505;28;20029;-69
2023/03/27 00:43:19;;;;;;;12.60;1.23;;;5.40;70.90;;;;;;5044654;28;20031;-69
2023/03/27 00:45:45;;;;;;;1.80;0.95;;;5.40;70.90;;;;;;5035360;28;20033;-65
2023/03/27 00:48:12;;;;;;;0.95;0.80;;;5.30;71.00;;;;;;5044109;28;20045;-69
2023/03/27 00:50:43;;;;;;;7.53;1.35;;;5.30;71.00;;;;;;5042265;28;20029;-64
2023/03/27 00:53:13;;;;;;;1.45;0.60;;;5.30;71.10;;;;;;5045064;28;20025;-64
2023/03/27 00:55:45;;;;;;;1.23;0.40;;;5.30;71.20;;;;;;5036161;28;20044;-69
2023/03/27 00:58:44;;;;;;;1.17;0.77;;;5.30;71.30;;;;;;5039814;28;20077;-69
2023/03/27 01:01:13;;;;;;;1.77;0.73;;;5.20;71.30;;;;;;5038136;28;20128;-69
2023/03/27 01:03:40;;;;;;;0.40;0.40;;;5.20;71.40;;;;;;5042612;28;20036;-69
2023/03/27 01:06:09;;;;;;;0.50;0.50;;;5.20;71.50;;;;;;5046707;28;20018;-66
2023/03/27 01:08:38;;;;;;;0.85;0.47;;;5.10;71.50;;;;;;5038974;28;20056;-69
2023/03/27 01:11:08;;;;;;;0.65;0.47;;;5.10;71.60;;;;;;5043055;28;20520;-70
2023/03/27 01:13:37;;;;;;;0.85;0.82;;;5.10;71.70;;;;;;5032067;28;20025;-65
2023/03/27 01:16:35;;;;;;;1.15;0.85;;;5.10;71.80;;;;;;5040134;28;20040;-65
2023/03/27 01:19:15;;;;;;;0.85;0.50;;;5.10;71.80;;;;;;5033040;28;20030;-65
2023/03/27 01:22:08;;;;;;;4.90;0.85;;;5.00;71.90;;;;;;5032032;28;20076;-65
2023/03/27 01:24:53;;;;;;;0.70;0.70;;;5.00;72.00;;;;;;5028791;28;20133;-65
2023/03/27 01:27:36;;;;;;;3.97;0.98;;;5.00;72.10;;;;;;5046200;28;20029;-65
2023/03/27 01:30:12;;;;;;;1.45;0.57;;;4.90;72.20;;;;;;5042199;28;20249;-65
2023/03/27 01:32:54;;;;;;;2.70;0.63;;;4.90;72.30;;;;;;5034937;28;20079;-65
2023/03/27 01:35:33;;;;;;;1.02;0.73;;;4.90;73.00;;;;;;5041990;28;20388;-69
2023/03/27 01:38:05;;;;;;;6.13;0.65;;;4.90;72.50;;;;;;5032690;28;20398;-69
2023/03/27 01:40:33;;;;;;;17.27;0.85;;;4.90;72.60;;;;;;5034122;28;20033;-69
2023/03/27 01:43:09;;;;;;;1.90;0.65;;;4.80;72.60;;;;;;5043278;28;20021;-68
2023/03/27 01:45:56;;;;;;;3.70;1.00;;;4.80;72.60;;;;;;5033649;28;20117;-69
2023/03/27 01:48:29;;;;;;;0.73;0.60;;;4.80;72.70;;;;;;5047715;28;20025;-69
2023/03/27 01:51:21;;;;;;;2.88;1.13;;;4.80;72.90;;;;;;5044950;28;20124;-69
2023/03/27 01:54:01;;;;;;;1.00;0.40;;;4.90;73.10;;;;;;5042378;28;20037;-69
2023/03/27 01:56:36;;;;;;;5.40;1.55;;;4.80;73.10;;;;;;5036497;28;20415;-69
2023/03/27 01:59:17;;;;;;;1.05;0.80;;;4.80;73.20;;;;;;5047759;28;20112;-70
2023/03/27 02:02:01;;;;;;;3.92;1.10;;;4.90;73.10;;;;;;5047264;28;20107;-69
2023/03/27 02:04:34;;;;;;;7.00;0.93;;;4.90;73.30;;;;;;5055782;28;20477;-65
2023/03/27 02:07:06;;;;;;;2.42;1.05;;;4.90;73.30;;;;;;5033978;28;20048;-65
2023/03/27 02:09:37;;;;;;;0.45;0.45;;;4.90;73.20;;;;;;5051020;28;20040;-68
2023/03/27 02:12:32;;;;;;;0.40;0.40;;;4.90;73.30;;;;;;5046852;28;20021;-65
2023/03/27 02:15:09;;;;;;;1.52;0.60;;;5.00;73.20;;;;;;5051725;28;20013;-65
2023/03/27 02:17:40;;;;;;;1.17;1.00;;;5.00;73.40;;;;;;5040988;28;20052;-65
2023/03/27 02:20:11;;;;;;;4.10;1.10;;;5.00;73.40;;;;;;5050124;28;20480;-65
2023/03/27 02:22:40;;;;;;;1.77;0.88;;;5.00;73.50;;;;;;5046966;28;20442;-65
2023/03/27 02:25:28;;;;;;;2.63;0.85;;;4.90;73.60;;;;;;5049656;28;20028;-65
2023/03/27 02:28:21;;;;;;;4.25;0.98;;;5.00;73.60;;;;;;5044817;28;20025;-65
2023/03/27 02:31:17;;;;;;;0.50;0.50;;;5.00;74.30;;;;;;5047541;28;20146;-65
2023/03/27 02:33:49;;;;;;;11.48;1.40;;;5.00;73.60;;;;;;5049541;28;20060;-69
2023/03/27 02:36:53;;;;;;;6.82;1.13;;;4.90;73.70;;;;;;5046896;28;20033;-69
2023/03/27 02:39:43;;;;;;;1.67;0.75;;;5.00;74.00;;;;;;5045171;28;20503;-65
2023/03/27 02:42:37;;;;;;;2.92;0.85;;;4.90;74.10;;;;;;5050549;28;20021;-68
2023/03/27 02:45:17;;;;;;;0.73;0.38;;;4.90;74.30;;;;;;5050662;28;20385;-65
2023/03/27 02:47:47;;;;;;;1.48;0.60;;;4.90;74.40;;;;;;5045077;28;20029;-66
2023/03/27 02:50:20;;;;;;;1.20;0.70;;;4.90;74.40;;;;;;5051318;28;20024;-69
2023/03/27 02:52:50;;;;;;;0.88;0.50;;;4.90;74.50;;;;;;5052567;28;20033;-69
2023/03/27 02:55:40;;;;;;;1.42;0.70;;;4.90;74.70;;;;;;5044286;28;20192;-69
2023/03/27 02:58:11;;;;;;;1.25;0.60;;;4.90;74.60;;;;;;5048341;28;20029;-69
2023/03/27 03:00:43;;;;;;;2.25;0.95;;;4.90;74.80;;;;;;5050858;28;20049;-68
2023/03/27 03:03:32;;;;;;;0.63;0.60;;;4.80;74.90;;;;;;5046685;28;20033;-70
2023/03/27 03:05:58;;;;;;;1.23;0.82;;;4.80;74.90;;;;;;5048845;28;20028;-69
2023/03/27 03:08:29;;;;;;;7.90;1.10;;;4.80;75.10;;;;;;5044507;28;20068;-69
2023/03/27 03:11:00;;;;;;;1.73;1.20;;;4.80;75.20;;;;;;5046726;28;20384;-69
2023/03/27 03:13:26;;;;;;;2.08;0.98;;;4.70;75.20;;;;;;5047730;28;20388;-69
2023/03/27 03:15:51;;;;;;;2.20;0.55;;;4.70;75.20;;;;;;5048228;28;20037;-69
2023/03/27 03:18:17;;;;;;;0.65;0.57;;;4.70;75.40;;;;;;5033317;28;20025;-64
2023/03/27 03:20:44;;;;;;;0.40;0.40;;;4.60;75.50;;;;;;5041404;28;20550;-65
2023/03/27 03:23:10;;;;;;;1.38;0.63;;;4.60;75.60;;;;;;5041501;28;20040;-65
2023/03/27 03:25:36;;;;;;;1.70;0.40;;;4.60;75.60;;;;;;5038882;28;20101;-65
2023/03/27 03:28:06;;;;;;;2.40;0.93;;;4.60;75.70;;;;;;5034306;28;20108;-65
2023/03/27 03:30:32;;;;;;;2.60;0.82;;;4.60;75.80;;;;;;5048071;28;20528;-65
2023/03/27 03:32:58;;;;;;;2.05;1.23;;;4.50;75.90;;;;;;5039113;28;20100;-65
2023/03/27 03:35:24;;;;;;;2.58;1.33;;;4.50;76.00;;;;;;5038741;28;20043;-65
2023/03/27 03:37:51;;;;;;;0.68;0.68;;;4.50;76.10;;;;;;5044877;28;20021;-66
2023/03/27 03:40:19;;;;;;;0.40;0.40;;;4.50;76.30;;;;;;5043612;28;20098;-64
2023/03/27 03:42:49;;;;;;;0.90;0.60;;;4.50;76.30;;;;;;5042850;28;20025;-69
2023/03/27 03:45:16;;;;;;;0.88;0.55;;;4.60;76.40;;;;;;5048722;28;20139;-69
2023/03/27 03:47:43;;;;;;;3.88;0.75;;;4.60;76.50;;;;;;5043988;28;20565;-69
2023/03/27 03:50:10;;;;;;;3.70;0.82;;;4.70;76.60;;;;;;5038844;28;20511;-69
2023/03/27 03:52:36;;;;;;;1.08;0.30;;;4.70;76.70;;;;;;5037359;28;20075;-70
2023/03/27 03:55:05;;;;;;;2.30;0.73;;;4.80;76.80;;;;;;5031615;28;20477;-69
2023/03/27 03:57:31;;;;;;;2.85;0.65;;;4.80;76.80;;;;;;5042270;28;20527;-70
2023/03/27 03:59:57;;;;;;;1.02;0.30;;;4.80;76.80;;;;;;5039884;28;20558;-67
2023/03/27 04:02:27;;;;;;;1.67;0.80;;;4.90;76.90;;;;;;5048768;28;20025;-64
2023/03/27 04:05:00;;;;;;;2.38;0.70;;;4.90;76.90;;;;;;5039728;28;20021;-65
2023/03/27 04:07:34;;;;;;;2.17;1.08;;;4.80;77.20;;;;;;5048114;28;20078;-65
2023/03/27 04:10:02;;;;;;;1.98;0.75;;;4.80;77.60;;;;;;5044317;28;20021;-65
2023/03/27 04:12:28;;;;;;;1.10;0.22;;;4.70;77.80;;;;;;5050007;28;20028;-66
2023/03/27 04:14:54;;;;;;;0.65;0.35;;;4.70;78.00;;;;;;5043835;28;20392;-68
2023/03/27 04:17:21;;;;;;;2.60;0.57;;;4.70;77.90;;;;;;5043745;28;20037;-64
2023/03/27 04:19:48;;;;;;;1.05;0.57;;;4.60;78.00;;;;;;5041720;28;20060;-65
2023/03/27 04:22:16;;;;;;;0.20;0.20;;;4.60;78.20;;;;;;5043536;28;20036;-65
2023/03/27 04:24:43;;;;;;;0.75;0.10;;;4.60;78.20;;;;;;5046280;28;20078;-65
2023/03/27 04:27:10;;;;;;;0.10;0.10;;;4.70;78.30;;;;;;5046016;28;20036;-65
2023/03/27 04:29:36;;;;;;;5.47;0.20;;;4.70;78.30;;;;;;5040846;28;20037;-64
2023/03/27 04:32:02;;;;;;;0.20;0.20;;;4.70;78.20;;;;;;5043464;28;20052;-66
2023/03/27 04:34:27;;;;;;;0.55;0.35;;;4.70;78.10;;;;;;5046334;28;20494;-66
2023/03/27 04:36:54;;;;;;;0.32;0.25;;;4.70;78.20;;;;;;5048843;28;20028;-65
2023/03/27 04:39:21;;;;;;;0.20;0.20;;;4.70;78.30;;;;;;5043306;28;20482;-65
2023/03/27 04:41:49;;;;;;;0.30;0.22;;;4.70;78.20;;;;;;5044381;28;20159;-65
2023/03/27 04:44:18;;;;;;;2.00;0.88;;;4.70;78.30;;;;;;5046378;28;20044;-65
2023/03/27 04:46:47;;;;;;;0.25;0.25;;;4.70;78.30;;;;;;5077728;28;20104;-67
2023/03/27 04:49:15;;;;;;;0.40;0.40;;;4.70;78.40;;;;;;5039912;28;20037;-70
2023/03/27 04:51:41;;;;;;;1.08;0.55;;;4.60;78.40;;;;;;5042600;28;20017;-67
2023/03/27 04:54:07;;;;;;;2.30;0.40;;;4.60;78.50;;;;;;5042130;28;20029;-67
2023/03/27 04:56:33;;;;;;;0.82;0.40;;;4.60;78.60;;;;;;5044075;28;20043;-65
2023/03/27 04:59:02;;;;;;;0.80;0.47;;;4.60;78.50;;;;;;5046207;28;20127;-69
2023/03/27 05:01:28;;;;;;;0.63;0.40;;;4.60;78.60;;;;;;5042206;28;20041;-69
2023/03/27 05:03:53;;;;;;;1.88;0.40;;;4.60;78.60;;;;;;5049289;28;20017;-69
2023/03/27 05:06:19;;;;;;;0.30;0.25;;;4.50;78.60;;;;;;5044649;28;20048;-69
2023/03/27 05:08:45;;;;;;;1.13;0.47;;;4.50;78.70;;;;;;5047433;28;20112;-69
2023/03/27 05:11:11;;;;;;;2.85;0.30;;;4.50;78.80;;;;;;5043196;28;20420;-70
2023/03/27 05:13:36;;;;;;;0.75;0.65;;;4.50;78.80;;;;;;5044236;28;20518;-69
2023/03/27 05:16:02;;;;;;;0.40;0.40;;;4.50;78.80;;;;;;5042291;28;20108;-69
2023/03/27 05:18:29;;;;;;;0.43;0.35;;;4.50;78.90;;;;;;5044640;28;20033;-65
2023/03/27 05:20:56;;;;;;;1.08;0.40;;;4.50;78.90;;;;;;5041261;28;20664;-65
2023/03/27 05:23:22;;;;;;;1.08;0.82;;;4.50;78.90;;;;;;5045436;28;20056;-65
2023/03/27 05:25:47;;;;;;;0.20;0.20;;;4.50;78.90;;;;;;5044142;28;20052;-69
2023/03/27 05:28:13;;;;;;;0.80;0.38;;;4.50;78.90;;;;;;5041209;28;20253;-65
2023/03/27 05:30:41;;;;;;;0.20;0.20;;;4.50;79.00;;;;;;5039954;28;20017;-64
2023/03/27 05:33:07;;;;;;;0.40;0.40;;;4.50;79.00;;;;;;5040537;28;20068;-69
2023/03/27 05:35:33;;;;;;;0.35;0.35;;;4.50;79.00;;;;;;5048480;28;20079;-66
2023/03/27 05:37:59;;;;;;;1.08;0.63;;;4.50;79.00;;;;;;5042927;28;20439;-65
2023/03/27 05:40:27;;;;;;;6.43;0.40;;;4.50;79.00;;;;;;5046846;28;20071;-70
2023/03/27 05:42:54;;;;;;;0.63;0.38;;;4.50;79.10;;;;;;5045411;28;20021;-69
2023/03/27 05:45:21;;;;;;;1.05;0.45;;;4.40;79.10;;;;;;5051079;28;20111;-68
2023/03/27 05:47:49;;;;;;;0.47;0.47;;;4.40;79.10;;;;;;5050146;28;20049;-69
2023/03/27 05:50:16;;;;;;;0.55;0.47;;;4.40;79.10;;;;;;5049047;28;20075;-69
2023/03/27 05:52:42;;;;;;;0.10;0.10;;;4.50;79.20;;;;;;5048268;28;20040;-70
2023/03/27 05:55:09;;;;;;;0.30;0.30;;;4.50;79.20;;;;;;5045759;28;20040;-69
2023/03/27 05:57:39;;;;;;;4.18;0.43;;;4.50;79.20;;;;;;5044450;28;20029;-65
2023/03/27 06:00:09;;;;;;;1.45;0.60;;;4.50;79.20;;;;;;5043051;28;20089;-69
2023/03/27 06:02:35;;;;;;;0.98;0.60;;;4.50;79.30;;;;;;5040044;28;20021;-65
2023/03/27 06:05:03;;;;;;;1.50;0.60;;;4.40;79.30;;;;;;5036819;28;20461;-69
2023/03/27 06:07:29;;;;;;;1.20;0.70;;;4.50;79.40;;;;;;5045074;28;20025;-69
2023/03/27 06:09:55;;;;;;;9.18;0.75;;;4.50;79.40;;;;;;5040699;28;20382;-66
2023/03/27 06:12:22;;;;;;;2.38;0.45;;;4.40;79.40;;;;;;5040155;28;20116;-65
2023/03/27 06:14:48;;;;;;;0.55;0.40;;;4.50;79.60;;;;;;5032545;28;20044;-70
2023/03/27 06:17:14;;;;;;;0.95;0.50;;;4.50;79.50;;;;;;5046870;28;20026;-65
2023/03/27 06:19:40;;;;;;;0.93;0.52;;;4.50;79.40;;;;;;5051718;28;20116;-69
2023/03/27 06:22:06;;;;;;;5.28;0.70;;;4.50;79.50;;;;;;5049725;28;20109;-66
2023/03/27 06:24:32;;;;;;;1.42;0.68;;;4.60;79.60;;;;;;5049153;28;20474;-65
2023/03/27 06:26:58;;;;;;;1.25;0.75;;;4.60;79.60;;;;;;5046599;28;20048;-69
2023/03/27 06:29:28;;;;;;;1.08;0.50;;;4.70;79.50;;;;;;5045093;28;20049;-66
2023/03/27 06:31:56;;;;;;;0.57;0.50;;;4.70;79.50;;;;;;5050069;28;20124;-64
2023/03/27 06:34:22;;;;;;;0.60;0.35;;;4.80;79.60;;;;;;5052817;28;20041;-65
2023/03/27 06:36:48;;;;;;;0.38;0.38;;;4.90;79.60;;;;;;5049488;28;20048;-69
2023/03/27 06:39:15;;;;;;;0.75;0.65;;;4.90;79.50;;;;;;5056146;28;20347;-65
2023/03/27 06:41:41;;;;;;;2.28;0.82;;;5.00;79.50;;;;;;5047992;28;20040;-65
2023/03/27 06:44:06;;;;;;;0.90;0.57;;;5.00;79.40;;;;;;5053537;28;20032;-69
2023/03/27 06:46:32;;;;;;;2.00;0.70;;;5.10;79.40;;;;;;5024849;28;20396;-65
2023/03/27 06:48:58;;;;;;;0.75;0.50;;;5.10;79.40;;;;;;5043712;28;20082;-65
2023/03/27 06:51:25;;;;;;;2.55;0.68;;;5.10;79.40;;;;;;5033600;28;20021;-66
2023/03/27 06:53:52;;;;;;;0.60;0.60;;;5.10;79.50;;;;;;5047132;28;20186;-65
2023/03/27 06:56:18;;;;;;;2.22;0.70;;;5.20;80.20;;;;;;5044199;28;20436;-69
2023/03/27 06:58:44;;;;;;;2.47;0.85;;;5.20;79.60;;;;;;5040309;28;20056;-66
2023/03/27 07:01:10;;;;;;;1.95;0.55;;;5.30;79.60;;;;;;5034296;28;20046;-64
2023/03/27 07:03:36;;;;;;;1.52;0.73;;;5.40;79.40;;;;;;5045579;28;20450;-64
2023/03/27 07:06:01;;;;;;;3.97;0.75;;;5.40;79.20;;;;;;5042349;28;20086;-66
2023/03/27 07:08:28;;;;;;;1.30;0.60;;;5.50;79.20;;;;;;5051692;28;20025;-65
2023/03/27 07:10:54;;;;;;;2.25;0.63;;;5.50;79.10;;;;;;5049207;28;20036;-66
2023/03/27 07:13:20;;;;;;;0.50;0.50;;;5.50;79.50;;;;;;5049256;28;20025;-63
2023/03/27 07:15:45;;;;;;;3.30;0.50;;;5.50;79.20;;;;;;5048817;28;20396;-67
2023/03/27 07:18:11;;;;;;;0.50;0.50;;;5.50;79.30;;;;;;5030705;28;20127;-67
2023/03/27 07:20:37;;;;;;;5.07;0.68;;;5.50;79.30;;;;;;5050323;28;20029;-66
2023/03/27 07:23:03;;;;;;;10.63;0.90;;;5.60;79.50;;;;;;5041498;28;20279;-66
2023/03/27 07:25:35;;;;;;;1.20;0.63;;;5.60;79.40;;;;;;5049733;28;20066;-65
2023/03/27 07:28:02;;;;;;;;;;;5.60;79.30;;;;;;5050501;28;20427;-64
2023/03/27 07:30:28;;;;;;;1.55;0.85;;;5.60;79.30;;;;;;5045688;28;19917;-66
2023/03/27 07:32:54;;;;;;;2.05;0.50;;;5.70;79.30;;;;;;5050148;28;20033;-66
2023/03/27 07:35:19;;;;;;;1.05;0.70;;;5.80;79.30;;;;;;5045483;28;20036;-66
2023/03/27 07:37:45;;;;;;;1.73;0.80;;;5.80;79.20;;;;;;5041333;28;20040;-66
2023/03/27 07:40:12;;;;;;;3.13;1.42;;;5.80;79.00;;;;;;5036066;28;20052;-65
2023/03/27 07:42:43;;;;;;;0.60;0.60;;;5.90;79.30;;;;;;5042666;28;20389;-66
2023/03/27 07:45:11;;;;;;;3.15;0.82;;;6.00;79.30;;;;;;5037876;28;20022;-66
2023/03/27 07:47:37;;;;;;;3.55;1.13;;;6.10;79.10;;;;;;5043844;28;20033;-69
2023/03/27 07:50:03;;;;;;;4.35;1.50;;;6.20;79.00;;;;;;5025906;28;20490;-68
2023/03/27 07:52:28;;;;;;;8.68;1.48;;;6.30;78.90;;;;;;5042543;28;20041;-66
2023/03/27 07:54:55;;;;;;;3.95;0.88;;;6.40;78.60;;;;;;5034941;28;20064;-69
2023/03/27 07:57:21;;;;;;;3.22;1.27;;;6.40;78.50;;;;;;5032532;28;20540;-66
2023/03/27 07:59:47;;;;;;;2.65;1.23;;;6.50;78.30;;;;;;5040705;28;20058;-65
2023/03/27 08:02:12;;;;;;;1.48;1.17;;;6.60;78.10;;;;;;5045079;28;20032;-67
2023/03/27 08:04:38;;;;;;;3.05;0.88;;;6.60;77.70;;;;;;5046939;28;20120;-65
2023/03/27 08:07:04;;;;;;;1.02;0.88;;;6.60;77.70;;;;;;5045623;28;20024;-65
2023/03/27 08:09:30;;;;;;;4.75;0.88;;;6.60;77.70;;;;;;5034230;28;20039;-65
2023/03/27 08:11:56;;;;;;;1.70;1.15;;;6.60;77.70;;;;;;5050925;28;20349;-67
2023/03/27 08:14:25;;;;;;;2.35;0.73;;;6.60;77.70;;;;;;5042440;28;20040;-68
2023/03/27 08:16:51;;;;;;;0.30;0.30;;;6.60;77.70;;;;;;5039276;28;20033;-66
2023/03/27 08:19:17;;;;;;;1.05;0.70;;;6.60;77.80;;;;;;5038187;28;20032;-67
2023/03/27 08:21:43;;;;;;;2.00;0.85;;;6.70;77.80;;;;;;5035016;28;20045;-67
2023/03/27 08:24:10;;;;;;;0.52;0.52;;;6.80;77.80;;;;;;5031231;28;20032;-67
2023/03/27 08:26:35;;;;;;;0.80;0.38;;;6.90;77.70;;;;;;5037349;28;20498;-67
2023/03/27 08:29:02;;;;;;;1.02;0.52;;;7.10;77.70;;;;;;5045654;28;20139;-66
2023/03/27 08:31:30;;;;;;;1.38;0.70;;;7.30;77.50;;;;;;5040394;28;20496;-67
2023/03/27 08:33:56;;;;;;;2.35;1.13;;;7.40;77.20;;;;;;5046751;28;20085;-66
2023/03/27 08:36:22;;;;;;;2.17;1.17;;;7.50;77.20;;;;;;5041683;28;20041;-66
2023/03/27 08:38:48;;;;;;;4.93;0.75;;;7.60;76.60;;;;;;5039560;28;20040;-66
2023/03/27 08:41:40;;;;;;;2.10;0.50;;;7.70;76.20;;;;;;5034208;28;20494;-66
2023/03/27 08:44:11;;;;;;;5.18;0.95;;;7.80;76.20;;;;;;5041070;28;20470;-65
2023/03/27 08:46:47;;;;;;;0.90;0.75;;;8.00;76.20;;;;;;5039570;28;20022;-66
2023/03/27 08:49:16;;;;;;;0.55;0.52;;;8.10;75.80;;;;;;5043594;28;20480;-65
2023/03/27 08:51:58;;;;;;;0.55;0.45;;;8.40;75.10;;;;;;5037362;28;20373;-65
2023/03/27 08:54:30;;;;;;;1.45;0.68;;;8.40;74.60;;;;;;5037383;28;20460;-66
2023/03/27 08:56:56;;;;;;;2.58;0.82;;;8.30;73.70;;;;;;5039060;28;20029;-66
2023/03/27 08:59:26;;;;;;;3.65;0.90;;;8.00;73.50;;;;;;5047705;28;20052;-65
2023/03/27 09:02:04;;;;;;;0.43;0.40;;;7.70;74.10;;;;;;5035908;28;20051;-66
2023/03/27 09:04:58;;;;;;;0.13;0.13;;;7.50;74.80;;;;;;5038167;28;20029;-67
2023/03/27 09:07:33;;;;;;;0.20;0.20;;;7.50;75.00;;;;;;5044687;28;20376;-67
2023/03/27 09:10:14;;;;;;;0.13;0.13;;;7.40;75.10;;;;;;5047979;28;20048;-67
2023/03/27 09:13:16;;;;;;;0.20;0.20;;;7.40;75.30;;;;;;5037877;28;20356;-66
2023/03/27 09:16:04;;;;;;;0.30;0.20;;;7.60;75.20;;;;;;5041483;28;20025;-65
2023/03/27 09:18:34;;;;;;;0.20;0.20;;;7.70;75.00;;;;;;5051756;28;20029;-65
2023/03/27 09:21:10;;;;;;;0.32;0.32;;;7.90;74.80;;;;;;5047100;28;20025;-68
2023/03/27 09:23:44;;;;;;;0.77;0.17;;;8.00;74.00;;;;;;5038832;28;20470;-66
2023/03/27 09:26:17;;;;;;;0.90;0.20;;;8.00;73.20;;;;;;5056219;28;20018;-64
2023/03/27 09:29:00;;;;;;;0.50;0.32;;;8.00;72.90;;;;;;5042301;28;20024;-65
2023/03/27 09:31:31;;;;;;;0.88;0.40;;;8.10;73.00;;;;;;5052654;28;20067;-65
2023/03/27 09:34:01;;;;;;;2.92;0.20;;;8.10;73.00;;;;;;5042432;28;20440;-65
2023/03/27 09:36:27;;;;;;;0.43;0.40;;;8.30;72.80;;;;;;5032299;28;20116;-65
2023/03/27 09:39:00;;;;;;;1.20;0.40;;;8.40;72.40;;;;;;5042141;28;20032;-64
2023/03/27 09:41:32;;;;;;;0.63;0.25;;;8.50;72.00;;;;;;5042489;28;20028;-65
2023/03/27 09:44:10;;;;;;;2.28;0.50;;;8.60;71.90;;;;;;5044698;28;20082;-65
2023/03/27 09:46:41;;;;;;;1.50;0.73;;;8.80;71.30;;;;;;5045891;28;20417;-65
2023/03/27 09:49:18;;;;;;;0.40;0.38;;;9.00;71.10;;;;;;5048149;28;20523;-65
2023/03/27 09:51:48;;;;;;;7.28;1.05;;;9.20;69.20;;;;;;5043446;28;20021;-64
2023/03/27 09:54:18;;;;;;;2.10;0.75;;;9.50;69.00;;;;;;5049992;28;20029;-65
2023/03/27 09:56:50;;;;;;;2.25;0.30;;;9.80;68.40;;;;;;5056428;28;20056;-65
2023/03/27 09:59:27;;;;;;;1.98;0.52;;;10.10;66.40;;;;;;5051689;28;20068;-65
2023/03/27 10:01:59;;;;;;;1.33;0.90;;;10.00;66.30;;;;;;5049550;28;20349;-66
2023/03/27 10:04:28;;;;;;;2.65;0.70;;;9.70;67.20;;;;;;5048913;28;20013;-65
2023/03/27 10:07:06;;;;;;;0.30;0.30;;;9.50;67.90;;;;;;5058036;28;20013;-64
2023/03/27 10:09:35;;;;;;;1.08;0.57;;;9.20;67.50;;;;;;5038534;28;20389;-65
2023/03/27 10:12:07;;;;;;;0.20;0.20;;;8.90;67.90;;;;;;5050397;28;20047;-66
2023/03/27 10:14:50;;;;;;;0.20;0.20;;;8.60;68.00;;;;;;5037112;28;20047;-65
2023/03/27 10:17:25;;;;;;;0.30;0.30;;;8.30;68.20;;;;;;5041684;28;20033;-65
2023/03/27 10:19:54;;;;;;;0.52;0.40;;;8.20;69.10;;;;;;5046983;28;20476;-66
2023/03/27 10:22:29;;;;;;;1.40;0.40;;;8.50;68.90;;;;;;5046172;28;20464;-67
2023/03/27 10:24:59;;;;;;;0.75;0.30;;;8.90;68.60;;;;;;5045131;28;20025;-66
2023/03/27 10:27:32;;;;;;;0.45;0.30;;;9.20;67.90;;;;;;5037887;28;20025;-66
2023/03/27 10:29:58;;;;;;;2.17;0.55;;;9.40;67.40;;;;;;5044417;28;20017;-66
2023/03/27 10:32:46;;;;;;;1.65;0.50;;;9.60;66.70;;;;;;5044853;28;20389;-64
2023/03/27 10:35:34;;;;;;;1.27;0.65;;;9.90;66.70;;;;;;5049189;28;20021;-64
2023/03/27 10:38:05;;;;;;;1.63;0.50;;;10.10;65.70;;;;;;5047834;28;20081;-65
2023/03/27 10:40:34;;;;;;;0.40;0.40;;;10.10;63.80;;;;;;5047699;28;20040;-71
2023/03/27 10:43:04;;;;;;;1.45;0.20;;;10.10;63.80;;;;;;5047212;28;20021;-64
2023/03/27 10:45:31;;;;;;;1.05;0.68;;;10.30;64.30;;;;;;5047296;28;20064;-67
2023/03/27 10:48:00;;;;;;;1.35;0.35;;;10.40;63.10;;;;;;5051563;28;20021;-64
2023/03/27 10:50:44;;;;;;;2.25;0.20;;;10.40;63.20;;;;;;5049454;28;20036;-65
2023/03/27 10:53:41;;;;;;;1.45;0.40;;;10.40;63.50;;;;;;5036464;28;20076;-67
2023/03/27 10:56:33;;;;;;;0.45;0.30;;;10.20;63.00;;;;;;5042962;28;20549;-67
2023/03/27 10:59:04;;;;;;;0.32;0.30;;;10.20;63.90;;;;;;5041060;28;20031;-65
2023/03/27 11:01:40;;;;;;;1.15;0.70;;;10.40;61.80;;;;;;5040944;28;20073;-65
2023/03/27 11:04:41;;;;;;;0.22;0.20;;;10.40;61.80;;;;;;5045270;28;20028;-65
2023/03/27 11:07:16;;;;;;;0.22;0.22;;;10.40;60.60;;;;;;5043602;28;20021;-65
2023/03/27 11:10:05;;;;;;;1.48;0.30;;;10.30;60.20;;;;;;5047730;28;20029;-67
2023/03/27 11:12:35;;;;;;;3.13;0.50;;;10.20;59.70;;;;;;5047593;28;20032;-65
2023/03/27 11:15:09;;;;;;;0.65;0.63;;;10.20;59.80;;;;;;5043899;28;20066;-65
2023/03/27 11:17:46;;;;;;;1.77;0.45;;;10.40;58.40;;;;;;5041233;28;20063;-64
2023/03/27 11:20:44;;;;;;;0.10;0.10;;;10.60;57.40;;;;;;5042783;28;20330;-65
2023/03/27 11:23:23;;;;;;;3.80;0.73;;;10.90;57.40;;;;;;5048653;28;20095;-66
2023/03/27 11:25:51;;;;;;;1.38;0.50;;;11.20;55.30;;;;;;5044555;28;20045;-66
2023/03/27 11:28:20;;;;;;;4.47;0.70;;;11.10;54.90;;;;;;5043594;28;20053;-67
2023/03/27 11:31:04;;;;;;;6.97;0.70;;;11.00;55.70;;;;;;5040409;28;20144;-67
2023/03/27 11:33:39;;;;;;;0.73;0.43;;;11.00;56.00;;;;;;5044388;28;20558;-68
2023/03/27 11:36:30;;;;;;;2.17;0.50;;;11.00;56.30;;;;;;5044836;28;20034;-66
2023/03/27 11:39:28;;;;;;;0.40;0.40;;;11.00;56.90;;;;;;5042235;28;20029;-67
2023/03/27 11:42:00;;;;;;;0.32;0.20;;;10.80;58.70;;;;;;5048201;28;20559;-64
2023/03/27 11:44:29;;;;;;;2.05;0.68;;;10.30;60.50;;;;;;5048775;28;20048;-67
2023/03/27 11:47:18;;;;;;;1.13;0.73;;;9.80;61.70;;;;;;5045034;28;20025;-65
2023/03/27 11:50:02;;;;;;;0.98;0.55;;;9.50;63.00;;;;;;5038618;28;20519;-65
2023/03/27 11:52:49;;;;;;;0.47;0.38;;;9.50;64.70;;;;;;5039498;28;20397;-66
2023/03/27 11:55:48;;;;;;;0.35;0.35;;;9.70;65.10;;;;;;5046369;28;20031;-66
2023/03/27 11:58:35;;;;;;;2.35;0.60;;;9.90;65.20;;;;;;5037104;28;20017;-65
2023/03/27 12:01:21;;;;;;;0.82;0.63;;;10.30;64.90;;;;;;5037494;28;20057;-67
2023/03/27 12:04:02;;;;;;;0.30;0.30;;;10.60;65.40;;;;;;5038766;28;20032;-66
2023/03/27 12:07:07;;;;;;;5.88;1.00;;;11.00;65.00;;;;;;5031170;28;20474;-68
2023/03/27 12:09:51;;;;;;;0.70;0.60;;;11.60;63.80;;;;;;5033837;28;20037;-67
2023/03/27 12:12:38;;;;;;;3.60;0.50;;;12.20;62.10;;;;;;5038736;28;20032;-69
2023/03/27 12:15:35;;;;;;;1.08;0.65;;;12.50;59.10;;;;;;5044731;28;20023;-68
2023/03/27 12:18:12;;;;;;;1.45;0.40;;;12.50;55.60;;;;;;5036673;28;20033;-68
2023/03/27 12:20:51;;;;;;;1.25;0.52;;;12.60;52.70;;;;;;5040324;28;20021;-67
2023/03/27 12:23:44;;;;;;;0.40;0.40;;;12.60;52.60;;;;;;5035685;28;20067;-64
2023/03/27 12:26:20;;;;;;;2.95;0.50;;;12.80;51.50;;;;;;5040126;28;20029;-69
2023/03/27 12:29:04;;;;;;;0.40;0.40;;;12.90;50.00;;;;;;5038484;28;20423;-69
2023/03/27 12:31:52;;;;;;;2.15;0.40;;;12.90;49.50;;;;;;5037751;28;20025;-67
2023/03/27 12:34:48;;;;;;;0.75;0.60;;;13.00;49.80;;;;;;5042630;28;20481;-66
2023/03/27 12:37:17;;;;;;;0.57;0.40;;;13.30;49.00;;;;;;5040799;28;20431;-67
2023/03/27 12:39:52;;;;;;;3.80;0.70;;;13.20;48.20;;;;;;5045385;28;20396;-67
2023/03/27 12:42:47;;;;;;;1.02;0.30;;;13.10;49.30;;;;;;5045994;28;20029;-65
2023/03/27 12:45:16;;;;;;;1.20;0.30;;;13.30;49.70;;;;;;5046615;28;20558;-68
2023/03/27 12:48:05;;;;;;;3.35;0.55;;;13.30;48.50;;;;;;5043695;28;20028;-67
2023/03/27 12:50:39;;;;;;;0.52;0.40;;;13.00;47.90;;;;;;5044226;28;20029;-62
2023/03/27 12:53:04;;;;;;;3.70;0.82;;;12.80;48.90;;;;;;5038501;28;20024;-65
2023/03/27 12:55:31;;;;;;;1.88;0.70;;;12.60;51.50;;;;;;5026360;28;20044;-65
2023/03/27 12:57:59;;;;;;;3.60;0.80;;;12.30;53.50;;;;;;5047327;28;20025;-64
2023/03/27 13:00:27;;;;;;;1.27;0.50;;;11.90;55.60;;;;;;5041998;28;20484;-64
2023/03/27 13:03:31;;;;;;;1.23;0.25;;;11.60;57.10;;;;;;5041517;28;20156;-65
2023/03/27 13:06:30;;;;;;;0.20;0.20;;;11.20;58.20;;;;;;5044000;28;20029;-65
2023/03/27 13:09:07;;;;;;;0.65;0.40;;;10.70;59.70;;;;;;5042628;28;20270;-64
2023/03/27 13:11:52;;;;;;;0.10;0.10;;;10.50;60.50;;;;;;5047395;28;20388;-63
2023/03/27 13:14:36;;;;;;;1.95;0.70;;;10.20;60.70;;;;;;5042428;28;20108;-63
2023/03/27 13:17:10;;;;;;;0.60;0.50;;;9.80;61.40;;;;;;5035083;28;20555;-64
2023/03/27 13:19:36;;;;;;;0.35;0.30;;;9.60;62.20;;;;;;5035907;28;20021;-65
2023/03/27 13:22:26;;;;;;;1.10;0.70;;;9.40;62.90;;;;;;5039002;28;20049;-64
2023/03/27 13:25:01;;;;;;;0.85;0.43;;;9.60;64.00;;;;;;5036065;28;20461;-65